Archiv-/Tagesdaten

--Timestamp---	Temp	Chill	HIndex	Humid	Dewpt	 Wind 	HiWind	WindDir	Rain 	Barom	Solar	 ET  	 UV 
--------------	----	-----	------	-----	-----	------	------	-------	-----	-----	-----	-----	----
20100209 00:00	-5.6	-5.6	-5.6	89	-7.1	5	10	135	0.0	1006.5	0	0.000	0.0
20100209 00:05	-5.5	-5.5	-5.5	89	-7.0	5	8	135	0.0	1006.4	0	0.000	0.0
20100209 00:10	-5.4	-5.4	-5.4	89	-7.0	3	6	135	0.0	1006.4	0	0.000	0.0
20100209 00:15	-5.4	-5.4	-5.4	90	-6.8	3	8	135	0.0	1006.5	0	0.000	0.0
20100209 00:20	-5.4	-5.4	-5.4	90	-6.8	5	8	112	0.0	1006.5	0	0.000	0.0
20100209 00:25	-5.4	-5.4	-5.4	90	-6.8	5	10	135	0.0	1006.4	0	0.000	0.0
20100209 00:30	-5.4	-5.4	-5.4	90	-6.8	3	6	135	0.0	1006.3	0	0.000	0.0
20100209 00:35	-5.4	-8.5	-5.4	90	-6.8	6	14	135	0.0	1006.3	0	0.000	0.0
20100209 00:40	-5.5	-5.5	-5.5	90	-6.9	3	8	135	0.0	1006.3	0	0.000	0.0
20100209 00:45	-5.4	-5.4	-5.4	90	-6.8	5	8	135	0.0	1006.2	0	0.000	0.0
20100209 00:50	-5.4	-5.4	-5.4	90	-6.8	5	11	135	0.0	1006.1	0	0.000	0.0
20100209 00:55	-5.5	-8.5	-5.5	90	-6.9	6	14	112	0.0	1006.1	0	0.000	0.0
20100209 01:00	-5.6	-8.6	-5.6	90	-6.9	6	10	135	0.0	1006.0	0	0.000	0.0
20100209 01:05	-5.6	-5.6	-5.6	90	-6.9	3	10	135	0.0	1006.0	0	0.000	0.0
20100209 01:10	-5.5	-5.5	-5.5	90	-6.9	2	5	135	0.0	1006.0	0	0.000	0.0
20100209 01:15	-5.5	-5.5	-5.5	90	-6.9	2	6	135	0.0	1006.0	0	0.000	0.0
20100209 01:20	-5.4	-5.4	-5.4	91	-6.7	2	5	135	0.0	1006.1	0	0.000	0.0
20100209 01:25	-5.4	-5.4	-5.4	90	-6.8	2	5	135	0.0	1006.1	0	0.000	0.0
20100209 01:30	-5.4	-5.4	-5.4	91	-6.7	2	5	135	0.0	1006.2	0	0.000	0.0
20100209 01:35	-5.3	-5.3	-5.3	91	-6.6	2	3	135	0.0	1006.3	0	0.000	0.0
20100209 01:40	-5.3	-5.3	-5.3	91	-6.5	2	3	135	0.0	1006.1	0	0.000	0.0
20100209 01:45	-5.2	-5.2	-5.2	91	-6.5	3	5	135	0.0	1006.0	0	0.000	0.0
20100209 01:50	-5.2	-5.2	-5.2	91	-6.5	2	6	135	0.0	1006.0	0	0.000	0.0
20100209 01:55	-5.2	-5.2	-5.2	91	-6.5	2	5	135	0.0	1006.0	0	0.000	0.0
20100209 02:00	-5.3	-5.3	-5.3	91	-6.5	3	5	135	0.0	1006.0	0	0.000	0.0
20100209 02:05	-5.4	-5.4	-5.4	91	-6.7	3	6	68	0.0	1006.1	0	0.000	0.0
20100209 02:10	-5.6	-5.6	-5.6	91	-6.8	5	8	45	0.0	1006.1	0	0.000	0.0
20100209 02:15	-5.7	-5.7	-5.7	91	-6.9	5	8	45	0.0	1006.2	0	0.000	0.0
20100209 02:20	-5.7	-5.7	-5.7	91	-7.0	5	8	45	0.0	1006.1	0	0.000	0.0
20100209 02:25	-5.7	-5.7	-5.7	91	-6.9	5	8	45	0.0	1006.1	0	0.000	0.0
20100209 02:30	-5.7	-5.7	-5.7	91	-6.9	5	10	68	0.0	1006.1	0	0.000	0.0
20100209 02:35	-5.6	-5.6	-5.6	91	-6.8	5	10	68	0.0	1006.0	0	0.000	0.0
20100209 02:40	-5.6	-5.6	-5.6	91	-6.8	5	6	68	0.0	1006.0	0	0.000	0.0
20100209 02:45	-5.6	-5.6	-5.6	92	-6.6	2	6	90	0.0	1006.0	0	0.000	0.0
20100209 02:50	-5.5	-5.5	-5.5	92	-6.6	3	8	90	0.0	1006.0	0	0.000	0.0
20100209 02:55	-5.4	-5.4	-5.4	92	-6.5	5	13	90	0.0	1006.1	0	0.000	0.0
20100209 03:00	-5.5	-5.5	-5.5	91	-6.7	5	10	112	0.0	1006.0	0	0.000	0.0
20100209 03:05	-5.6	-5.6	-5.6	91	-6.8	5	10	90	0.0	1006.0	0	0.000	0.0
20100209 03:10	-5.6	-5.6	-5.6	92	-6.7	3	8	90	0.0	1006.0	0	0.000	0.0
20100209 03:15	-5.6	-8.7	-5.6	92	-6.7	6	11	112	0.0	1005.8	0	0.000	0.0
20100209 03:20	-5.6	-5.6	-5.6	92	-6.7	5	11	90	0.0	1005.8	0	0.000	0.0
20100209 03:25	-5.7	-5.7	-5.7	92	-6.8	5	10	135	0.0	1005.8	0	0.000	0.0
20100209 03:30	-5.7	-8.8	-5.7	92	-6.8	6	10	135	0.0	1005.7	0	0.000	0.0
20100209 03:35	-5.8	-8.9	-5.8	91	-7.0	6	11	90	0.0	1005.7	0	0.000	0.0
20100209 03:40	-5.8	-8.9	-5.8	92	-6.9	6	11	90	0.0	1005.7	0	0.000	0.0
20100209 03:45	-5.8	-5.8	-5.8	92	-6.9	5	8	135	0.0	1005.6	0	0.000	0.0
20100209 03:50	-5.8	-8.9	-5.8	92	-6.9	6	14	135	0.0	1005.5	0	0.000	0.0
20100209 03:55	-5.8	-5.8	-5.8	92	-6.9	5	11	135	0.0	1005.6	0	0.000	0.0
20100209 04:00	-5.8	-5.8	-5.8	92	-6.9	5	10	135	0.0	1005.6	0	0.000	0.0
20100209 04:05	-5.8	-5.8	-5.8	92	-6.9	3	10	135	0.0	1005.5	0	0.000	0.0
20100209 04:10	-5.8	-5.8	-5.8	92	-6.9	5	10	90	0.0	1005.5	0	0.000	0.0
20100209 04:15	-5.8	-8.9	-5.8	92	-6.9	6	10	90	0.0	1005.5	0	0.000	0.0
20100209 04:20	-5.8	-5.8	-5.8	92	-6.9	5	8	112	0.0	1005.5	0	0.000	0.0
20100209 04:25	-5.8	-5.8	-5.8	92	-6.9	3	8	90	0.0	1005.4	0	0.000	0.0
20100209 04:30	-5.8	-5.8	-5.8	92	-6.9	5	11	90	0.0	1005.4	0	0.000	0.0
20100209 04:35	-5.9	-9.0	-5.9	92	-7.0	6	11	112	0.0	1005.6	0	0.000	0.0
20100209 04:40	-5.9	-9.0	-5.9	92	-7.0	6	13	112	0.0	1005.6	0	0.000	0.0
20100209 04:45	-5.9	-9.0	-5.9	92	-7.0	6	11	112	0.0	1005.6	0	0.000	0.0
20100209 04:50	-5.9	-5.9	-5.9	92	-7.0	5	10	135	0.0	1005.7	0	0.000	0.0
20100209 04:55	-5.9	-5.9	-5.9	92	-7.0	3	6	112	0.0	1005.7	0	0.000	0.0
20100209 05:00	-5.9	-5.9	-5.9	92	-7.0	5	10	112	0.0	1005.7	0	0.000	0.0
20100209 05:05	-5.9	-9.0	-5.9	92	-7.0	6	11	135	0.0	1005.6	0	0.000	0.0
20100209 05:10	-5.9	-5.9	-5.9	92	-7.0	5	10	135	0.0	1005.6	0	0.000	0.0
20100209 05:15	-5.9	-5.9	-5.9	92	-7.0	5	13	135	0.0	1005.6	0	0.000	0.0
20100209 05:20	-6.0	-6.0	-6.0	92	-7.1	5	11	112	0.0	1005.5	0	0.000	0.0
20100209 05:25	-6.0	-6.0	-6.0	91	-7.2	3	8	90	0.0	1005.5	0	0.000	0.0
20100209 05:30	-6.1	-6.1	-6.1	91	-7.3	5	10	90	0.0	1005.5	0	0.000	0.0
20100209 05:35	-6.1	-6.1	-6.1	91	-7.3	5	10	158	0.0	1005.4	0	0.000	0.0
20100209 05:40	-6.1	-6.1	-6.1	92	-7.1	3	8	112	0.0	1005.4	0	0.000	0.0
20100209 05:45	-6.0	-6.0	-6.0	92	-7.1	5	8	135	0.0	1005.3	0	0.000	0.0
20100209 05:50	-6.0	-6.0	-6.0	92	-7.1	5	10	135	0.0	1005.3	0	0.000	0.0
20100209 05:55	-6.0	-6.0	-6.0	92	-7.1	5	11	135	0.0	1005.4	0	0.000	0.0
20100209 06:00	-6.1	-6.1	-6.1	92	-7.1	5	14	135	0.0	1005.3	0	0.000	0.0
20100209 06:05	-6.1	-6.1	-6.1	92	-7.1	5	14	135	0.0	1005.4	0	0.000	0.0
20100209 06:10	-6.1	-9.2	-6.1	92	-7.1	6	10	135	0.0	1005.4	0	0.000	0.0
20100209 06:15	-6.1	-6.1	-6.1	92	-7.1	5	8	90	0.0	1005.4	0	0.000	0.0
20100209 06:20	-6.1	-6.1	-6.1	92	-7.1	5	10	112	0.0	1005.4	0	0.000	0.0
20100209 06:25	-6.1	-6.1	-6.1	92	-7.1	3	8	135	0.0	1005.3	0	0.000	0.0
20100209 06:30	-6.0	-6.0	-6.0	92	-7.1	5	10	90	0.0	1005.4	0	0.000	0.0
20100209 06:35	-6.1	-6.1	-6.1	92	-7.1	5	10	90	0.0	1005.3	0	0.000	0.0
20100209 06:40	-6.1	-9.2	-6.1	92	-7.1	6	11	112	0.0	1005.3	0	0.000	0.0
20100209 06:45	-6.1	-6.1	-6.1	92	-7.2	5	11	90	0.0	1005.2	0	0.000	0.0
20100209 06:50	-6.1	-6.1	-6.1	92	-7.2	5	11	112	0.0	1005.2	0	0.000	0.0
20100209 06:55	-6.1	-6.1	-6.1	92	-7.2	3	8	90	0.0	1005.3	0	0.000	0.0
20100209 07:00	-6.1	-6.1	-6.1	92	-7.2	5	10	112	0.0	1005.3	0	0.000	0.0
20100209 07:05	-6.1	-6.1	-6.1	92	-7.1	5	10	90	0.0	1005.3	0	0.000	0.0
20100209 07:10	-6.1	-6.1	-6.1	92	-7.2	5	11	135	0.0	1005.3	0	0.000	0.0
20100209 07:15	-6.1	-9.2	-6.1	92	-7.2	6	11	135	0.0	1005.3	0	0.000	0.0
20100209 07:20	-6.1	-6.1	-6.1	92	-7.2	5	14	135	0.0	1005.3	0	0.000	0.0
20100209 07:25	-6.1	-6.1	-6.1	92	-7.1	3	6	112	0.0	1005.2	0	0.000	0.0
20100209 07:30	-6.1	-6.1	-6.1	92	-7.1	5	8	112	0.0	1005.3	0	0.000	0.0
20100209 07:35	-6.1	-6.1	-6.1	92	-7.1	5	14	135	0.0	1005.3	0	0.000	0.0
20100209 07:40	-6.1	-6.1	-6.1	92	-7.1	5	11	112	0.0	1005.2	0	0.000	0.0
20100209 07:45	-6.1	-9.8	-6.1	92	-7.1	8	14	135	0.0	1005.2	0	0.000	0.0
20100209 07:50	-6.1	-6.1	-6.1	92	-7.1	5	11	112	0.0	1005.3	0	0.000	0.0
20100209 07:55	-6.1	-6.1	-6.1	92	-7.1	5	10	90	0.0	1005.4	4	0.000	0.0
20100209 08:00	-6.1	-6.1	-6.1	92	-7.1	3	8	158	0.0	1005.4	5	0.000	0.0
20100209 08:05	-6.0	-6.0	-6.0	92	-7.1	5	11	135	0.0	1005.4	7	0.000	0.0
20100209 08:10	-6.1	-6.1	-6.1	92	-7.1	5	11	90	0.0	1005.4	9	0.000	0.0
20100209 08:15	-6.1	-9.2	-6.1	92	-7.1	6	10	90	0.0	1005.4	12	0.000	0.0
20100209 08:20	-6.1	-6.1	-6.1	92	-7.1	5	11	90	0.0	1005.3	15	0.000	0.0
20100209 08:25	-6.1	-6.1	-6.1	92	-7.1	5	8	90	0.0	1005.4	17	0.000	0.0
20100209 08:30	-6.0	-6.0	-6.0	92	-7.1	3	8	135	0.0	1005.4	18	0.000	0.0
20100209 08:35	-6.0	-6.0	-6.0	92	-7.1	2	6	135	0.0	1005.4	19	0.000	0.0
20100209 08:40	-6.1	-6.1	-6.1	92	-7.1	5	8	112	0.0	1005.4	22	0.000	0.0
20100209 08:45	-6.1	-6.1	-6.1	92	-7.1	2	8	112	0.0	1005.4	26	0.000	0.0
20100209 08:50	-6.0	-6.0	-6.0	92	-7.1	2	8	90	0.0	1005.4	26	0.000	0.0
20100209 08:55	-6.0	-6.0	-6.0	92	-7.1	5	8	90	0.0	1005.4	28	0.000	0.0
20100209 09:00	-6.1	-6.1	-6.1	92	-7.1	3	6	90	0.0	1005.4	28	0.000	0.0
20100209 09:05	-6.1	-6.1	-6.1	92	-7.1	3	8	68	0.0	1005.4	31	0.000	0.0
20100209 09:10	-6.1	-6.1	-6.1	92	-7.1	5	8	90	0.0	1005.4	35	0.000	0.0
20100209 09:15	-6.0	-6.0	-6.0	92	-7.1	3	8	112	0.0	1005.4	38	0.000	0.0
20100209 09:20	-6.0	-6.0	-6.0	92	-7.1	3	6	112	0.0	1005.4	40	0.000	0.0
20100209 09:25	-6.0	-6.0	-6.0	92	-7.1	3	8	90	0.0	1005.3	43	0.000	0.0
20100209 09:30	-6.0	-6.0	-6.0	92	-7.1	5	10	68	0.0	1005.2	47	0.000	0.0
20100209 09:35	-6.0	-9.1	-6.0	92	-7.1	6	11	68	0.0	1005.2	50	0.000	0.0
20100209 09:40	-6.1	-9.2	-6.1	92	-7.1	6	10	68	0.0	1005.2	51	0.000	0.0
20100209 09:45	-6.0	-6.0	-6.0	92	-7.1	5	8	68	0.0	1005.3	53	0.000	0.0
20100209 09:50	-5.9	-5.9	-5.9	92	-7.0	3	8	135	0.0	1005.3	59	0.000	0.0
20100209 09:55	-5.9	-9.0	-5.9	92	-7.0	6	11	68	0.0	1005.3	61	0.000	0.0
20100209 10:00	-5.9	-5.9	-5.9	92	-7.0	5	10	68	0.0	1005.2	63	0.025	0.0
20100209 10:05	-5.9	-5.9	-5.9	92	-7.0	5	10	68	0.0	1005.4	67	0.000	0.0
20100209 10:10	-5.8	-5.8	-5.8	92	-6.9	3	6	90	0.0	1005.4	69	0.000	0.0
20100209 10:15	-5.8	-5.8	-5.8	92	-6.9	3	8	90	0.0	1005.2	71	0.000	0.0
20100209 10:20	-5.8	-5.8	-5.8	92	-6.9	5	10	68	0.0	1005.3	70	0.000	0.0
20100209 10:25	-5.7	-5.7	-5.7	92	-6.8	5	8	68	0.0	1005.2	69	0.000	0.0
20100209 10:30	-5.7	-5.7	-5.7	92	-6.8	5	8	68	0.0	1005.3	66	0.000	0.0
20100209 10:35	-5.7	-8.8	-5.7	92	-6.8	6	10	68	0.0	1005.3	70	0.000	0.0
20100209 10:40	-5.7	-8.7	-5.7	92	-6.8	6	11	68	0.0	1005.2	76	0.000	0.0
20100209 10:45	-5.7	-8.7	-5.7	92	-6.8	6	10	68	0.0	1005.2	83	0.000	0.0
20100209 10:50	-5.7	-8.7	-5.7	92	-6.8	6	10	68	0.0	1005.2	93	0.000	0.0
20100209 10:55	-5.6	-5.6	-5.6	92	-6.6	3	8	68	0.0	1005.2	100	0.000	0.0
20100209 11:00	-5.4	-5.4	-5.4	92	-6.5	3	6	68	0.0	1005.2	103	0.025	0.0
20100209 11:05	-5.3	-5.3	-5.3	92	-6.4	3	8	68	0.0	1005.1	112	0.000	0.3
20100209 11:10	-5.2	-5.2	-5.2	92	-6.3	5	8	68	0.0	1005.1	118	0.000	0.5
20100209 11:15	-5.1	-5.1	-5.1	92	-6.1	3	10	112	0.0	1005.0	113	0.000	0.4
20100209 11:20	-5.1	-5.1	-5.1	91	-6.3	3	8	90	0.0	1005.0	103	0.000	0.0
20100209 11:25	-5.1	-5.1	-5.1	91	-6.3	3	10	68	0.0	1004.9	98	0.000	0.0
20100209 11:30	-5.0	-5.0	-5.0	92	-6.1	2	8	68	0.0	1005.0	88	0.000	0.0
20100209 11:35	-5.0	-5.0	-5.0	91	-6.2	3	8	68	0.0	1005.0	88	0.000	0.0
20100209 11:40	-4.9	-4.9	-4.9	91	-6.2	3	6	112	0.0	1004.9	84	0.000	0.0
20100209 11:45	-5.1	-5.1	-5.1	91	-6.3	3	6	112	0.0	1004.9	89	0.000	0.0
20100209 11:50	-5.1	-5.1	-5.1	91	-6.3	3	8	90	0.0	1004.9	91	0.000	0.0
20100209 11:55	-5.0	-5.0	-5.0	91	-6.2	3	8	90	0.0	1004.8	96	0.000	0.0
20100209 12:00	-5.0	-5.0	-5.0	91	-6.2	3	6	90	0.0	1004.8	94	0.025	0.0
20100209 12:05	-4.9	-4.9	-4.9	91	-6.2	3	10	112	0.0	1004.6	99	0.000	0.1
20100209 12:10	-4.9	-4.9	-4.9	91	-6.2	5	10	68	0.0	1004.6	109	0.000	0.5
20100209 12:15	-4.8	-4.8	-4.8	91	-6.1	5	8	90	0.0	1004.6	116	0.000	0.5
20100209 12:20	-4.8	-4.8	-4.8	91	-6.1	3	8	112	0.0	1004.5	120	0.000	0.5
20100209 12:25	-4.8	-4.8	-4.8	91	-6.0	5	8	135	0.0	1004.5	113	0.000	0.5
20100209 12:30	-4.7	-4.7	-4.7	90	-6.1	3	8	90	0.0	1004.3	110	0.000	0.5
20100209 12:35	-4.7	-4.7	-4.7	91	-6.0	3	6	90	0.0	1004.3	110	0.000	0.5
20100209 12:40	-4.7	-4.7	-4.7	90	-6.1	3	8	135	0.0	1004.3	109	0.000	0.5
20100209 12:45	-4.8	-7.7	-4.8	90	-6.2	6	11	68	0.0	1004.5	113	0.000	0.5
20100209 12:50	-4.8	-7.7	-4.8	90	-6.2	6	11	68	0.0	1004.4	110	0.000	0.5
20100209 12:55	-4.8	-4.8	-4.8	90	-6.2	5	11	68	0.0	1004.4	105	0.000	0.5
20100209 13:00	-4.8	-7.8	-4.8	90	-6.2	6	11	68	0.0	1004.4	97	0.025	0.2
20100209 13:05	-4.8	-4.8	-4.8	90	-6.2	5	10	90	0.0	1004.2	92	0.000	0.0
20100209 13:10	-4.8	-7.8	-4.8	90	-6.2	6	11	68	0.0	1004.2	93	0.000	0.0
20100209 13:15	-4.8	-4.8	-4.8	90	-6.2	5	10	90	0.0	1004.2	92	0.000	0.0
20100209 13:20	-4.8	-4.8	-4.8	90	-6.2	3	10	68	0.0	1004.2	95	0.000	0.0
20100209 13:25	-4.8	-7.7	-4.8	90	-6.2	6	11	68	0.0	1004.1	100	0.000	0.0
20100209 13:30	-4.7	-4.7	-4.7	90	-6.1	5	10	68	0.0	1004.1	90	0.000	0.0
20100209 13:35	-4.7	-4.7	-4.7	90	-6.1	3	10	90	0.0	1004.1	77	0.000	0.0
20100209 13:40	-4.7	-4.7	-4.7	90	-6.1	3	8	90	0.0	1004.0	82	0.000	0.0
20100209 13:45	-4.7	-4.7	-4.7	89	-6.2	3	8	90	0.0	1004.0	74	0.000	0.0
20100209 13:50	-4.7	-4.7	-4.7	89	-6.2	5	10	90	0.0	1004.0	80	0.000	0.0
20100209 13:55	-4.7	-4.7	-4.7	89	-6.2	5	8	90	0.0	1004.0	86	0.000	0.0
20100209 14:00	-4.7	-4.7	-4.7	89	-6.2	5	10	90	0.0	1003.9	89	0.025	0.0
20100209 14:05	-4.7	-4.7	-4.7	89	-6.2	5	8	68	0.0	1003.9	86	0.000	0.0
20100209 14:10	-4.8	-4.8	-4.8	89	-6.3	5	8	68	0.0	1004.0	87	0.000	0.0
20100209 14:15	-4.8	-4.8	-4.8	89	-6.3	5	10	68	0.0	1004.0	82	0.000	0.0
20100209 14:20	-4.7	-4.7	-4.7	89	-6.3	5	11	68	0.0	1003.8	85	0.000	0.0
20100209 14:25	-4.7	-8.2	-4.7	89	-6.2	8	11	68	0.0	1003.7	83	0.000	0.0
20100209 14:30	-4.6	-7.5	-4.6	89	-6.1	6	10	68	0.0	1003.7	78	0.000	0.0
20100209 14:35	-4.6	-4.6	-4.6	89	-6.1	5	8	68	0.0	1003.6	78	0.000	0.0
20100209 14:40	-4.6	-4.6	-4.6	89	-6.1	5	10	68	0.0	1003.7	71	0.000	0.0
20100209 14:45	-4.6	-4.6	-4.6	89	-6.1	5	8	68	0.0	1003.7	69	0.000	0.0
20100209 14:50	-4.6	-4.6	-4.6	89	-6.1	3	8	68	0.0	1003.6	70	0.000	0.0
20100209 14:55	-4.5	-4.5	-4.5	89	-6.0	5	8	112	0.0	1003.5	68	0.000	0.0
20100209 15:00	-4.4	-4.4	-4.4	89	-6.0	3	8	112	0.0	1003.5	61	0.025	0.0
20100209 15:05	-4.4	-4.4	-4.4	89	-5.9	3	8	158	0.0	1003.6	57	0.000	0.0
20100209 15:10	-4.3	-4.3	-4.3	89	-5.9	3	6	68	0.0	1003.5	52	0.000	0.0
20100209 15:15	-4.3	-4.3	-4.3	89	-5.8	5	10	90	0.0	1003.5	49	0.000	0.0
20100209 15:20	-4.3	-4.3	-4.3	89	-5.8	5	10	135	0.0	1003.4	57	0.000	0.0
20100209 15:25	-4.3	-7.2	-4.3	88	-6.0	6	11	112	0.0	1003.4	53	0.000	0.0
20100209 15:30	-4.3	-4.3	-4.3	88	-6.0	5	10	112	0.0	1003.4	51	0.000	0.0
20100209 15:35	-4.3	-7.2	-4.3	88	-6.0	6	10	90	0.0	1003.5	46	0.000	0.0
20100209 15:40	-4.4	-4.4	-4.4	88	-6.1	3	8	135	0.0	1003.6	38	0.000	0.0
20100209 15:45	-4.3	-4.3	-4.3	88	-6.0	5	10	112	0.0	1003.6	37	0.000	0.0
20100209 15:50	-4.3	-4.3	-4.3	89	-5.9	5	8	90	0.0	1003.6	36	0.000	0.0
20100209 15:55	-4.4	-4.4	-4.4	88	-6.1	5	8	90	0.0	1003.5	34	0.000	0.0
20100209 16:00	-4.4	-4.4	-4.4	88	-6.1	3	8	90	0.0	1003.5	29	0.025	0.0
20100209 16:05	-4.4	-4.4	-4.4	88	-6.1	3	10	135	0.0	1003.7	28	0.000	0.0
20100209 16:10	-4.4	-4.4	-4.4	88	-6.1	5	10	135	0.0	1003.7	25	0.000	0.0
20100209 16:15	-4.4	-4.4	-4.4	88	-6.1	5	10	135	0.0	1003.6	22	0.000	0.0
20100209 16:20	-4.4	-4.4	-4.4	89	-6.0	3	10	135	0.0	1003.6	21	0.000	0.0
20100209 16:25	-4.4	-4.4	-4.4	89	-6.0	5	8	112	0.0	1003.5	19	0.000	0.0
20100209 16:30	-4.4	-4.4	-4.4	89	-6.0	5	10	112	0.0	1003.5	16	0.000	0.0
20100209 16:35	-4.5	-4.5	-4.5	89	-6.0	3	8	135	0.0	1003.6	13	0.000	0.0
20100209 16:40	-4.5	-4.5	-4.5	89	-6.0	5	10	135	0.0	1003.6	12	0.000	0.0
20100209 16:45	-4.6	-4.6	-4.6	89	-6.1	5	11	135	0.0	1003.7	11	0.000	0.0
20100209 16:50	-4.6	-7.4	-4.6	89	-6.1	6	11	112	0.0	1003.6	9	0.000	0.0
20100209 16:55	-4.6	-4.6	-4.6	88	-6.2	5	11	112	0.0	1003.6	7	0.000	0.0
20100209 17:00	-4.6	-4.6	-4.6	88	-6.3	5	10	112	0.0	1003.7	6	0.000	0.0
20100209 17:05	-4.7	-7.6	-4.7	88	-6.3	6	11	112	0.0	1003.7	2	0.000	0.0
20100209 17:10	-4.7	-7.6	-4.7	89	-6.3	6	11	112	0.0	1003.6	0	0.000	0.0
20100209 17:15	-4.7	-4.7	-4.7	89	-6.2	5	11	112	0.0	1003.4	0	0.000	0.0
20100209 17:20	-4.7	-7.6	-4.7	89	-6.2	6	11	135	0.0	1003.4	0	0.000	0.0
20100209 17:25	-4.7	-4.7	-4.7	89	-6.3	5	8	112	0.0	1003.5	0	0.000	0.0
20100209 17:30	-4.7	-4.7	-4.7	89	-6.3	5	8	135	0.0	1003.6	0	0.000	0.0
20100209 17:35	-4.7	-4.7	-4.7	89	-6.3	5	10	112	0.0	1003.6	0	0.000	0.0
20100209 17:40	-4.8	-4.8	-4.8	89	-6.3	5	8	90	0.0	1003.4	0	0.000	0.0
20100209 17:45	-4.8	-4.8	-4.8	89	-6.4	5	10	90	0.0	1003.5	0	0.000	0.0
20100209 17:50	-4.9	-7.8	-4.9	89	-6.4	6	11	112	0.0	1003.6	0	0.000	0.0
20100209 17:55	-5.0	-8.0	-5.0	89	-6.5	6	11	112	0.0	1003.7	0	0.000	0.0
20100209 18:00	-5.0	-8.0	-5.0	89	-6.5	6	10	135	0.0	1003.7	0	0.000	0.0
20100209 18:05	-5.1	-8.0	-5.1	89	-6.6	6	11	135	0.0	1003.8	0	0.000	0.0
20100209 18:10	-5.1	-8.0	-5.1	89	-6.6	6	10	112	0.0	1003.8	0	0.000	0.0
20100209 18:15	-5.1	-8.1	-5.1	90	-6.5	6	11	112	0.0	1003.8	0	0.000	0.0
20100209 18:20	-5.2	-8.1	-5.2	89	-6.7	6	11	112	0.0	1003.8	0	0.000	0.0
20100209 18:25	-5.2	-8.1	-5.2	89	-6.7	6	11	112	0.0	1003.7	0	0.000	0.0
20100209 18:30	-5.2	-8.9	-5.2	90	-6.6	8	16	112	0.0	1003.7	0	0.000	0.0
20100209 18:35	-5.2	-8.2	-5.2	90	-6.6	6	10	112	0.0	1003.7	0	0.000	0.0
20100209 18:40	-5.2	-8.2	-5.2	90	-6.6	6	14	112	0.0	1003.6	0	0.000	0.0
20100209 18:45	-5.2	-8.2	-5.2	90	-6.6	6	14	135	0.0	1003.8	0	0.000	0.0
20100209 18:50	-5.3	-5.3	-5.3	90	-6.7	3	8	135	0.0	1003.9	0	0.000	0.0
20100209 18:55	-5.3	-5.3	-5.3	90	-6.7	5	10	135	0.0	1003.7	0	0.000	0.0
20100209 19:00	-5.3	-5.3	-5.3	90	-6.7	5	8	112	0.0	1003.8	0	0.000	0.0
20100209 19:05	-5.3	-5.3	-5.3	90	-6.7	5	8	112	0.0	1003.8	0	0.000	0.0
20100209 19:10	-5.2	-5.2	-5.2	90	-6.6	5	11	112	0.0	1003.9	0	0.000	0.0
20100209 19:15	-5.3	-8.3	-5.3	90	-6.7	6	10	112	0.0	1003.9	0	0.000	0.0
20100209 19:20	-5.3	-5.3	-5.3	90	-6.7	5	10	112	0.0	1004.0	0	0.000	0.0
20100209 19:25	-5.3	-9.0	-5.3	90	-6.7	8	11	112	0.0	1003.9	0	0.000	0.0
20100209 19:30	-5.3	-5.3	-5.3	90	-6.7	5	10	135	0.0	1003.9	0	0.000	0.0
20100209 19:35	-5.3	-5.3	-5.3	90	-6.7	5	11	135	0.0	1003.9	0	0.000	0.0
20100209 19:40	-5.4	-9.1	-5.4	90	-6.8	8	13	112	0.0	1003.9	0	0.000	0.0
20100209 19:45	-5.4	-9.7	-5.4	90	-6.8	10	13	112	0.0	1003.8	0	0.000	0.0
20100209 19:50	-5.4	-8.4	-5.4	90	-6.8	6	11	112	0.0	1003.9	0	0.000	0.0
20100209 19:55	-5.4	-5.4	-5.4	90	-6.8	5	11	112	0.0	1003.9	0	0.000	0.0
20100209 20:00	-5.4	-5.4	-5.4	90	-6.8	5	10	135	0.0	1004.0	0	0.000	0.0
20100209 20:05	-5.4	-5.4	-5.4	90	-6.8	5	10	90	0.0	1004.1	0	0.000	0.0
20100209 20:10	-5.4	-8.5	-5.4	90	-6.8	6	10	112	0.0	1004.0	0	0.000	0.0
20100209 20:15	-5.5	-8.5	-5.5	90	-6.9	6	11	135	0.0	1004.1	0	0.000	0.0
20100209 20:20	-5.5	-5.5	-5.5	90	-6.9	5	8	135	0.0	1004.1	0	0.000	0.0
20100209 20:25	-5.5	-5.5	-5.5	90	-6.9	5	10	112	0.0	1004.2	0	0.000	0.0
20100209 20:30	-5.6	-5.6	-5.6	90	-6.9	5	10	112	0.0	1004.1	0	0.000	0.0
20100209 20:35	-5.6	-8.6	-5.6	89	-7.1	6	11	135	0.0	1004.2	0	0.000	0.0
20100209 20:40	-5.6	-5.6	-5.6	89	-7.1	5	11	112	0.0	1004.1	0	0.000	0.0
20100209 20:45	-5.6	-5.6	-5.6	89	-7.1	3	10	112	0.0	1004.2	0	0.000	0.0
20100209 20:50	-5.7	-5.7	-5.7	89	-7.2	5	10	90	0.0	1004.3	0	0.000	0.0
20100209 20:55	-5.7	-5.7	-5.7	90	-7.0	5	10	112	0.0	1004.3	0	0.000	0.0
20100209 21:00	-5.7	-8.8	-5.7	89	-7.2	6	11	135	0.0	1004.2	0	0.000	0.0
20100209 21:05	-5.8	-5.8	-5.8	89	-7.3	5	11	135	0.0	1004.2	0	0.000	0.0
20100209 21:10	-5.8	-8.9	-5.8	89	-7.3	6	11	135	0.0	1004.3	0	0.000	0.0
20100209 21:15	-5.8	-8.9	-5.8	89	-7.3	6	10	112	0.0	1004.3	0	0.000	0.0
20100209 21:20	-5.8	-8.9	-5.8	89	-7.3	6	11	135	0.0	1004.2	0	0.000	0.0
20100209 21:25	-5.9	-9.7	-5.9	89	-7.4	8	14	112	0.0	1004.2	0	0.000	0.0
20100209 21:30	-5.9	-10.3	-5.9	89	-7.5	10	14	112	0.0	1004.3	0	0.000	0.0
20100209 21:35	-5.9	-9.7	-5.9	89	-7.5	8	11	135	0.0	1004.2	0	0.000	0.0
20100209 21:40	-5.9	-10.3	-5.9	89	-7.5	10	16	112	0.0	1004.2	0	0.000	0.0
20100209 21:45	-6.0	-9.8	-6.0	89	-7.5	8	11	112	0.0	1004.2	0	0.000	0.0
20100209 21:50	-6.0	-9.1	-6.0	89	-7.5	6	10	112	0.0	1004.3	0	0.000	0.0
20100209 21:55	-6.0	-9.1	-6.0	89	-7.5	6	11	112	0.0	1004.3	0	0.000	0.0
20100209 22:00	-6.0	-9.1	-6.0	89	-7.5	6	11	112	0.0	1004.4	0	0.000	0.0
20100209 22:05	-6.0	-6.0	-6.0	89	-7.5	5	10	112	0.0	1004.3	0	0.000	0.0
20100209 22:10	-5.9	-5.9	-5.9	89	-7.5	5	10	112	0.0	1004.5	0	0.000	0.0
20100209 22:15	-5.9	-9.0	-5.9	89	-7.5	6	11	158	0.0	1004.5	0	0.000	0.0
20100209 22:20	-6.0	-9.1	-6.0	89	-7.5	6	11	135	0.0	1004.5	0	0.000	0.0
20100209 22:25	-6.1	-9.2	-6.1	89	-7.6	6	13	112	0.0	1004.5	0	0.000	0.0
20100209 22:30	-6.1	-6.1	-6.1	89	-7.6	5	11	112	0.0	1004.5	0	0.000	0.0
20100209 22:35	-6.1	-6.1	-6.1	89	-7.6	5	10	112	0.0	1004.5	0	0.000	0.0
20100209 22:40	-6.1	-6.1	-6.1	89	-7.6	5	10	112	0.0	1004.5	0	0.000	0.0
20100209 22:45	-6.1	-6.1	-6.1	89	-7.6	5	10	112	0.0	1004.5	0	0.000	0.0
20100209 22:50	-6.2	-9.3	-6.2	89	-7.7	6	10	112	0.0	1004.5	0	0.000	0.0
20100209 22:55	-6.2	-9.3	-6.2	89	-7.7	6	11	112	0.0	1004.6	0	0.000	0.0
20100209 23:00	-6.2	-10.0	-6.2	89	-7.7	8	11	135	0.0	1004.5	0	0.000	0.0
20100209 23:05	-6.2	-6.2	-6.2	89	-7.7	5	11	135	0.0	1004.4	0	0.000	0.0
20100209 23:10	-6.2	-9.4	-6.2	89	-7.7	6	11	112	0.0	1004.4	0	0.000	0.0
20100209 23:15	-6.2	-9.3	-6.2	89	-7.7	6	10	112	0.0	1004.5	0	0.000	0.0
20100209 23:20	-6.2	-9.4	-6.2	89	-7.7	6	10	112	0.0	1004.5	0	0.000	0.0
20100209 23:25	-6.2	-6.2	-6.2	89	-7.7	5	8	112	0.0	1004.5	0	0.000	0.0
20100209 23:30	-6.2	-9.3	-6.2	89	-7.7	6	10	112	0.0	1004.5	0	0.000	0.0
20100209 23:35	-6.2	-9.4	-6.2	89	-7.7	6	10	112	0.0	1004.5	0	0.000	0.0
20100209 23:40	-6.2	-6.2	-6.2	89	-7.7	5	8	135	0.0	1004.5	0	0.000	0.0
20100209 23:45	-6.2	-6.2	-6.2	89	-7.7	3	10	135	0.0	1004.6	0	0.000	0.0
20100209 23:50	-6.2	-6.2	-6.2	89	-7.7	5	10	135	0.0	1004.5	0	0.000	0.0
20100209 23:55	-6.2	-9.4	-6.2	89	-7.7	6	10	112	0.0	1004.5	0	0.000	0.0



Please note the license to use and transfer of this data:
http://creativecommons.org/licenses/by-nc-sa/3.0/deed.en

Bitte beachten sie die Lizenz zur Verwertung und Weitergabe der Daten:
http://creativecommons.org/licenses/by-nc-sa/3.0/deed.de

zurück zur Übersicht der Archivdaten (Monats und Tagesdaten)

Cookies helfen bei der Bereitstellung von Inhalten. Durch die Nutzung dieser Seiten erklärst du dich damit einverstanden, dass Cookies auf deinem Rechner gespeichert werden. Weitere Information